createdAt,value
2016-08-15T00:00:04.976Z,13.8
2016-08-15T00:00:14.973Z,13.8
2016-08-15T00:00:24.973Z,13.8
2016-08-15T00:00:34.974Z,13.8
2016-08-15T00:00:44.975Z,13.8
2016-08-15T00:00:54.981Z,13.8
2016-08-15T00:01:04.977Z,13.8
2016-08-15T00:01:14.979Z,13.7
2016-08-15T00:01:24.985Z,13.8
2016-08-15T00:01:34.973Z,13.8
2016-08-15T00:01:44.973Z,13.7
2016-08-15T00:01:54.977Z,13.8
2016-08-15T00:02:04.976Z,13.8
2016-08-15T00:02:14.975Z,13.8
2016-08-15T00:02:24.976Z,13.8
2016-08-15T00:02:34.976Z,13.8
2016-08-15T00:02:44.977Z,13.9
2016-08-15T00:02:54.981Z,13.8
2016-08-15T00:03:04.976Z,13.8
2016-08-15T00:03:14.977Z,13.9
2016-08-15T00:03:24.976Z,13.9
2016-08-15T00:03:34.987Z,13.8
2016-08-15T00:03:44.974Z,13.9
2016-08-15T00:03:54.976Z,13.8
2016-08-15T00:04:04.977Z,13.9
2016-08-15T00:04:14.976Z,13.9
2016-08-15T00:04:24.977Z,13.9
2016-08-15T00:04:34.976Z,13.9
2016-08-15T00:04:44.976Z,13.9
2016-08-15T00:04:54.977Z,13.9
2016-08-15T00:05:04.974Z,13.9
2016-08-15T00:05:14.979Z,13.9
2016-08-15T00:05:24.976Z,13.9
2016-08-15T00:05:34.979Z,13.9
2016-08-15T00:05:44.979Z,14
2016-08-15T00:05:54.979Z,14
2016-08-15T00:06:04.977Z,14
2016-08-15T00:06:14.979Z,13.9
2016-08-15T00:06:24.989Z,13.9
2016-08-15T00:06:34.979Z,14
2016-08-15T00:06:44.982Z,14
2016-08-15T00:06:54.978Z,14
2016-08-15T00:07:04.979Z,13.9
2016-08-15T00:07:14.980Z,14
2016-08-15T00:07:24.978Z,14
2016-08-15T00:07:34.977Z,14
2016-08-15T00:07:44.978Z,14
2016-08-15T00:07:54.980Z,14
2016-08-15T00:08:04.979Z,14
2016-08-15T00:08:14.978Z,13.9
2016-08-15T00:08:24.980Z,14
2016-08-15T00:08:34.979Z,14
2016-08-15T00:08:44.979Z,14
2016-08-15T00:08:54.979Z,14
2016-08-15T00:09:04.980Z,14
2016-08-15T00:09:14.980Z,13.9
2016-08-15T00:09:24.980Z,13.9
2016-08-15T00:09:34.985Z,14
2016-08-15T00:09:44.984Z,14
2016-08-15T00:09:54.980Z,14.1
2016-08-15T00:10:04.988Z,14
2016-08-15T00:10:14.980Z,14
2016-08-15T00:10:24.980Z,14
2016-08-15T00:10:34.984Z,14
2016-08-15T00:10:44.984Z,13.9
2016-08-15T00:10:54.979Z,14
2016-08-15T00:11:04.979Z,13.9
2016-08-15T00:11:14.982Z,14
2016-08-15T00:11:24.979Z,14
2016-08-15T00:11:34.982Z,14
2016-08-15T00:11:44.980Z,14
2016-08-15T00:11:54.981Z,13.9
2016-08-15T00:12:04.983Z,14
2016-08-15T00:12:14.982Z,14
2016-08-15T00:12:24.982Z,14
2016-08-15T00:12:34.990Z,14
2016-08-15T00:12:44.983Z,13.9
2016-08-15T00:12:54.982Z,14
2016-08-15T00:13:04.982Z,14
2016-08-15T00:13:14.983Z,14
2016-08-15T00:13:24.982Z,14.1
2016-08-15T00:13:34.983Z,14
2016-08-15T00:13:44.986Z,14
2016-08-15T00:13:54.986Z,13.9
2016-08-15T00:14:04.983Z,14
2016-08-15T00:14:14.983Z,14
2016-08-15T00:14:24.983Z,14
2016-08-15T00:14:34.983Z,14
2016-08-15T00:14:44.985Z,14
2016-08-15T00:14:54.982Z,14
2016-08-15T00:15:04.984Z,14
2016-08-15T00:15:14.986Z,14
2016-08-15T00:15:24.982Z,14
2016-08-15T00:15:34.996Z,14
2016-08-15T00:15:44.982Z,13.9
2016-08-15T00:15:54.985Z,14
2016-08-15T00:16:04.984Z,14
2016-08-15T00:16:14.983Z,14
2016-08-15T00:16:24.983Z,14
2016-08-15T00:16:34.985Z,14
2016-08-15T00:16:44.984Z,14
2016-08-15T00:16:54.986Z,13.9
2016-08-15T00:17:04.985Z,14
2016-08-15T00:17:14.984Z,13.9
2016-08-15T00:17:24.985Z,13.9
2016-08-15T00:17:34.986Z,13.9
2016-08-15T00:17:44.985Z,13.9
2016-08-15T00:17:54.988Z,13.9
2016-08-15T00:18:04.986Z,14
2016-08-15T00:18:14.985Z,13.9
2016-08-15T00:18:24.986Z,13.9
2016-08-15T00:18:34.987Z,14
2016-08-15T00:18:44.987Z,13.9
2016-08-15T00:18:54.985Z,13.9
2016-08-15T00:19:04.989Z,13.9
2016-08-15T00:19:14.986Z,13.9
2016-08-15T00:19:24.987Z,13.9
2016-08-15T00:19:34.988Z,13.9
2016-08-15T00:19:45.000Z,13.9
2016-08-15T00:19:54.987Z,13.9
2016-08-15T00:20:04.990Z,13.9
2016-08-15T00:20:14.986Z,13.9
2016-08-15T00:20:24.989Z,13.8
2016-08-15T00:20:34.987Z,13.9
2016-08-15T00:20:44.987Z,13.9
2016-08-15T00:20:54.990Z,13.9
2016-08-15T00:21:04.986Z,13.9
2016-08-15T00:21:14.989Z,14
2016-08-15T00:21:24.989Z,13.9
2016-08-15T00:21:34.989Z,13.9
2016-08-15T00:21:44.990Z,13.9
2016-08-15T00:21:54.988Z,13.9
2016-08-15T00:22:04.989Z,14
2016-08-15T00:22:14.989Z,13.9
2016-08-15T00:22:24.989Z,13.9
2016-08-15T00:22:34.989Z,13.9
2016-08-15T00:22:44.989Z,13.9
2016-08-15T00:22:54.987Z,13.9
2016-08-15T00:23:04.991Z,13.9
2016-08-15T00:23:14.993Z,13.9
2016-08-15T00:23:24.990Z,14
2016-08-15T00:23:34.989Z,13.9
2016-08-15T00:23:44.989Z,14
2016-08-15T00:23:54.992Z,13.9
2016-08-15T00:24:04.992Z,13.9
2016-08-15T00:24:14.989Z,13.9
2016-08-15T00:24:24.991Z,14
2016-08-15T00:24:34.991Z,14
2016-08-15T00:24:44.993Z,13.9
2016-08-15T00:24:54.992Z,14
2016-08-15T00:25:04.993Z,14
2016-08-15T00:25:14.990Z,14
2016-08-15T00:25:24.990Z,14
2016-08-15T00:25:34.992Z,14
2016-08-15T00:25:44.993Z,14
2016-08-15T00:25:54.992Z,13.9
2016-08-15T00:26:04.991Z,14
2016-08-15T00:26:14.992Z,14
2016-08-15T00:26:24.991Z,13.9
2016-08-15T00:26:34.992Z,14
2016-08-15T00:26:44.993Z,14
2016-08-15T00:26:54.993Z,14
2016-08-15T00:27:04.994Z,14
2016-08-15T00:27:14.994Z,13.9
2016-08-15T00:27:24.991Z,13.9
2016-08-15T00:27:34.999Z,14
2016-08-15T00:27:44.992Z,14
2016-08-15T00:27:54.992Z,14
2016-08-15T00:28:04.995Z,14
2016-08-15T00:28:14.995Z,14
2016-08-15T00:28:24.993Z,14
2016-08-15T00:28:34.993Z,14
2016-08-15T00:28:44.995Z,13.9
2016-08-15T00:28:54.993Z,14.1
2016-08-15T00:29:04.995Z,14
2016-08-15T00:29:14.995Z,14.1
2016-08-15T00:29:24.993Z,14
2016-08-15T00:29:34.992Z,14.1
2016-08-15T00:29:44.996Z,14.1
2016-08-15T00:29:54.995Z,14
2016-08-15T00:30:04.993Z,14
2016-08-15T00:30:14.996Z,14
2016-08-15T00:30:24.999Z,14
2016-08-15T00:30:34.995Z,13.9
2016-08-15T00:30:44.995Z,13.9
2016-08-15T00:30:54.995Z,14
2016-08-15T00:31:04.996Z,14
2016-08-15T00:31:14.996Z,14
2016-08-15T00:31:24.996Z,14
2016-08-15T00:31:34.997Z,14
2016-08-15T00:31:44.995Z,14.1
2016-08-15T00:31:54.998Z,14.1
2016-08-15T00:32:04.999Z,14.1
2016-08-15T00:32:14.995Z,14.1
2016-08-15T00:32:24.999Z,14
2016-08-15T00:32:34.996Z,14
2016-08-15T00:32:44.998Z,14
2016-08-15T00:32:54.995Z,14.1
2016-08-15T00:33:04.997Z,14
2016-08-15T00:33:14.995Z,14.1
2016-08-15T00:33:24.999Z,14.1
2016-08-15T00:33:35.004Z,14.1
2016-08-15T00:33:44.999Z,14.1
2016-08-15T00:33:54.998Z,14.1
2016-08-15T00:34:04.999Z,14
2016-08-15T00:34:14.999Z,14
2016-08-15T00:34:25.000Z,14.1
2016-08-15T00:34:34.999Z,14
2016-08-15T00:34:44.998Z,14
2016-08-15T00:34:54.999Z,14.1
2016-08-15T00:35:04.998Z,14.1
2016-08-15T00:35:15.003Z,14.1
2016-08-15T00:35:24.998Z,14
2016-08-15T00:35:34.999Z,14.1
2016-08-15T00:35:45.000Z,14.1
2016-08-15T00:35:55.004Z,14
2016-08-15T00:36:05.003Z,14
2016-08-15T00:36:14.999Z,14
2016-08-15T00:36:25.001Z,14
2016-08-15T00:36:35.003Z,14
2016-08-15T00:36:45.001Z,14
2016-08-15T00:36:55.001Z,14
2016-08-15T00:37:05.000Z,14
2016-08-15T00:37:14.999Z,14
2016-08-15T00:37:25.002Z,14.1
2016-08-15T00:37:35.001Z,14
2016-08-15T00:37:45.003Z,14.1
2016-08-15T00:37:55.003Z,14
2016-08-15T00:38:05.000Z,14
2016-08-15T00:38:15.002Z,14.1
2016-08-15T00:38:25.001Z,14
2016-08-15T00:38:35.003Z,14
2016-08-15T00:38:45.003Z,14
2016-08-15T00:38:55.002Z,14
2016-08-15T00:39:05.006Z,14
2016-08-15T00:39:15.002Z,14
2016-08-15T00:39:25.000Z,14
2016-08-15T00:39:35.004Z,14
2016-08-15T00:39:45.002Z,14
2016-08-15T00:39:55.003Z,14
2016-08-15T00:40:05.002Z,13.9
2016-08-15T00:40:15.003Z,13.9
2016-08-15T00:40:25.002Z,14
2016-08-15T00:40:35.004Z,13.9
2016-08-15T00:40:45.003Z,14
2016-08-15T00:40:55.002Z,14
2016-08-15T00:41:05.003Z,14
2016-08-15T00:41:15.001Z,14
2016-08-15T00:41:25.005Z,14
2016-08-15T00:41:35.004Z,14
2016-08-15T00:41:45.005Z,14
2016-08-15T00:41:55.005Z,14
2016-08-15T00:42:05.006Z,14
2016-08-15T00:42:15.004Z,14
2016-08-15T00:42:25.007Z,13.9
2016-08-15T00:42:35.004Z,14
2016-08-15T00:42:45.004Z,14
2016-08-15T00:42:55.006Z,14
2016-08-15T00:43:05.003Z,14
2016-08-15T00:43:15.007Z,14.1
2016-08-15T00:43:25.006Z,14.1
2016-08-15T00:43:35.007Z,14.1
2016-08-15T00:43:45.006Z,14.1
2016-08-15T00:43:55.007Z,14.1
2016-08-15T00:44:05.006Z,14.1
2016-08-15T00:44:15.007Z,14.1
2016-08-15T00:44:25.007Z,14.1
2016-08-15T00:44:35.006Z,14.1
2016-08-15T00:44:45.007Z,14.1
2016-08-15T00:44:55.011Z,14.2
2016-08-15T00:45:05.007Z,14
2016-08-15T00:45:15.010Z,14.1
2016-08-15T00:45:25.008Z,14.1
2016-08-15T00:45:35.009Z,14.2
2016-08-15T00:45:45.010Z,14.2
2016-08-15T00:45:55.009Z,14.1
2016-08-15T00:46:05.007Z,14.1
2016-08-15T00:46:15.014Z,14.3
2016-08-15T00:46:25.008Z,14.3
2016-08-15T00:46:35.008Z,14.1
2016-08-15T00:46:45.011Z,14.1
2016-08-15T00:46:55.009Z,14.2
2016-08-15T00:47:05.009Z,14.1
2016-08-15T00:47:15.008Z,14.1
2016-08-15T00:47:25.009Z,14.1
2016-08-15T00:47:35.008Z,14.1
2016-08-15T00:47:45.011Z,14.1
2016-08-15T00:47:55.011Z,14.2
2016-08-15T00:48:05.011Z,14.2
2016-08-15T00:48:15.008Z,14.2
2016-08-15T00:48:25.011Z,14.1
2016-08-15T00:48:35.010Z,14.2
2016-08-15T00:48:45.012Z,14.2
2016-08-15T00:48:55.012Z,14.2
2016-08-15T00:49:05.011Z,14.2
2016-08-15T00:49:15.014Z,14.1
2016-08-15T00:49:25.011Z,14.2
2016-08-15T00:49:35.014Z,14.2
2016-08-15T00:49:45.011Z,14.2
2016-08-15T00:49:55.012Z,14.2
2016-08-15T00:50:05.015Z,14.2
2016-08-15T00:50:15.016Z,14.2
2016-08-15T00:50:25.011Z,14.2
2016-08-15T00:50:35.020Z,14.2
2016-08-15T00:50:45.014Z,14.2
2016-08-15T00:50:55.014Z,14.2
2016-08-15T00:51:05.013Z,14.2
2016-08-15T00:51:15.015Z,14.3
2016-08-15T00:51:25.012Z,14.2
2016-08-15T00:51:35.013Z,14.2
2016-08-15T00:51:45.012Z,14.2
2016-08-15T00:51:55.015Z,14.3
2016-08-15T00:52:05.015Z,14.2
2016-08-15T00:52:15.016Z,14.2
2016-08-15T00:52:25.015Z,14.2
2016-08-15T00:52:35.013Z,14.2
2016-08-15T00:52:45.016Z,14.2
2016-08-15T00:52:55.013Z,14.2
2016-08-15T00:53:05.013Z,14.3
2016-08-15T00:53:15.017Z,14.2
2016-08-15T00:53:25.018Z,14.2
2016-08-15T00:53:35.017Z,14.3
2016-08-15T00:53:45.017Z,14.2
2016-08-15T00:53:55.020Z,14.2
2016-08-15T00:54:05.014Z,14.2
2016-08-15T00:54:15.018Z,14.2
2016-08-15T00:54:25.014Z,14.2
2016-08-15T00:54:35.016Z,14.2
2016-08-15T00:54:45.016Z,14.3
2016-08-15T00:54:55.014Z,14.3
2016-08-15T00:55:05.018Z,14.4
2016-08-15T00:55:15.020Z,14.3
2016-08-15T00:55:25.017Z,14.3
2016-08-15T00:55:35.020Z,14.3
2016-08-15T00:55:45.017Z,14.4
2016-08-15T00:55:55.017Z,14.3
2016-08-15T00:56:05.018Z,14.3
2016-08-15T00:56:15.019Z,14.3
2016-08-15T00:56:25.017Z,14.2
2016-08-15T00:56:35.019Z,14.3
2016-08-15T00:56:45.019Z,14.3
2016-08-15T00:56:55.018Z,14.2
2016-08-15T00:57:05.018Z,14.3
2016-08-15T00:57:15.018Z,14.2
2016-08-15T00:57:25.019Z,14.2
2016-08-15T00:57:35.018Z,14.2
2016-08-15T00:57:45.020Z,14.2
2016-08-15T00:57:55.021Z,14.2
2016-08-15T00:58:05.018Z,14.3
2016-08-15T00:58:15.021Z,14.3
2016-08-15T00:58:25.021Z,14.4
2016-08-15T00:58:35.021Z,14.2
2016-08-15T00:58:45.022Z,14.2
2016-08-15T00:58:55.021Z,14.2
2016-08-15T00:59:05.020Z,14.2
2016-08-15T00:59:15.020Z,14.2
2016-08-15T00:59:25.022Z,14.2
2016-08-15T00:59:35.021Z,14.2
2016-08-15T00:59:45.023Z,14.2
2016-08-15T00:59:55.022Z,14.2
2016-08-15T01:00:05.021Z,14.3
2016-08-15T01:00:15.021Z,14.2
2016-08-15T01:00:25.020Z,14.2
2016-08-15T01:00:35.023Z,14.3
2016-08-15T01:00:45.023Z,14.3
2016-08-15T01:00:55.022Z,14.3
2016-08-15T01:01:05.022Z,14.2
2016-08-15T01:01:15.022Z,14.3
2016-08-15T01:01:25.023Z,14.2
2016-08-15T01:01:35.022Z,14.2
2016-08-15T01:01:45.022Z,14.4
2016-08-15T01:01:55.022Z,14.4
2016-08-15T01:02:05.023Z,14.3
2016-08-15T01:02:15.026Z,14.4
2016-08-15T01:02:25.024Z,14.4
2016-08-15T01:02:35.024Z,14.3
2016-08-15T01:02:45.024Z,14.3
2016-08-15T01:02:55.024Z,14.3
2016-08-15T01:03:05.033Z,14.3
2016-08-15T01:03:15.027Z,14.3
2016-08-15T01:03:25.024Z,14.3
2016-08-15T01:03:35.026Z,14.3
2016-08-15T01:03:45.028Z,14.4
2016-08-15T01:03:55.025Z,14.3
2016-08-15T01:04:05.026Z,14.3
2016-08-15T01:04:15.026Z,14.3
2016-08-15T01:04:25.029Z,14.3
2016-08-15T01:04:35.028Z,14.4
2016-08-15T01:04:45.029Z,14.3
2016-08-15T01:04:55.027Z,14.3
2016-08-15T01:05:05.026Z,14.3
2016-08-15T01:05:15.030Z,14.3
2016-08-15T01:05:25.027Z,14.3
2016-08-15T01:05:35.028Z,14.4
2016-08-15T01:05:45.027Z,14.4
2016-08-15T01:05:55.030Z,14.3
2016-08-15T01:06:05.027Z,14.3
2016-08-15T01:06:15.029Z,14.4
2016-08-15T01:06:25.028Z,14.5
2016-08-15T01:06:35.030Z,14.4
2016-08-15T01:06:45.030Z,14.4
2016-08-15T01:06:55.028Z,14.3
2016-08-15T01:07:05.028Z,14.4
2016-08-15T01:07:15.030Z,14.4
2016-08-15T01:07:25.031Z,14.4
2016-08-15T01:07:35.032Z,14.4
2016-08-15T01:07:45.030Z,14.4
2016-08-15T01:07:55.030Z,14.4
2016-08-15T01:08:05.031Z,14.4
2016-08-15T01:08:15.031Z,14.3
2016-08-15T01:08:25.030Z,14.4
2016-08-15T01:08:35.033Z,14.4
2016-08-15T01:08:45.028Z,14.4
2016-08-15T01:08:55.031Z,14.5
2016-08-15T01:09:05.031Z,14.4
2016-08-15T01:09:15.034Z,14.4
2016-08-15T01:09:25.032Z,14.4
2016-08-15T01:09:35.033Z,14.4
2016-08-15T01:09:45.033Z,14.4
2016-08-15T01:09:55.033Z,14.4
2016-08-15T01:10:05.033Z,14.4
2016-08-15T01:10:15.036Z,14.5
2016-08-15T01:10:25.039Z,14.4
2016-08-15T01:10:35.042Z,14.4
2016-08-15T01:10:45.034Z,14.3
2016-08-15T01:10:55.031Z,14.4
2016-08-15T01:11:05.035Z,14.4
2016-08-15T01:11:15.035Z,14.4
2016-08-15T01:11:25.034Z,14.5
2016-08-15T01:11:35.036Z,14.5
2016-08-15T01:11:45.034Z,14.5
2016-08-15T01:11:55.034Z,14.5
2016-08-15T01:12:05.035Z,14.5
2016-08-15T01:12:15.038Z,14.5
2016-08-15T01:12:25.037Z,14.5
2016-08-15T01:12:35.038Z,14.5
2016-08-15T01:12:45.037Z,14.5
2016-08-15T01:12:55.035Z,14.5
2016-08-15T01:13:05.034Z,14.5
2016-08-15T01:13:15.038Z,14.5
2016-08-15T01:13:25.038Z,14.4
2016-08-15T01:13:35.035Z,14.4
2016-08-15T01:13:45.036Z,14.5
2016-08-15T01:13:55.043Z,14.4
2016-08-15T01:14:05.037Z,14.4
2016-08-15T01:14:15.037Z,14.4
2016-08-15T01:14:25.038Z,14.5
2016-08-15T01:14:35.038Z,14.5
2016-08-15T01:14:45.037Z,14.5
2016-08-15T01:14:55.038Z,14.4
2016-08-15T01:15:05.038Z,14.5
2016-08-15T01:15:15.037Z,14.5
2016-08-15T01:15:25.039Z,14.5
2016-08-15T01:15:35.043Z,14.5
2016-08-15T01:15:45.039Z,14.4
2016-08-15T01:15:55.038Z,14.4
2016-08-15T01:16:05.041Z,14.4
2016-08-15T01:16:15.038Z,14.5
2016-08-15T01:16:25.042Z,14.4
2016-08-15T01:16:35.040Z,14.5
2016-08-15T01:16:45.039Z,14.5
2016-08-15T01:16:55.041Z,14.5
2016-08-15T01:17:05.041Z,14.5
2016-08-15T01:17:15.041Z,14.5
2016-08-15T01:17:25.042Z,14.5
2016-08-15T01:17:35.040Z,14.5
2016-08-15T01:17:45.041Z,14.4
2016-08-15T01:17:55.057Z,14.5
2016-08-15T01:18:05.042Z,14.4
2016-08-15T01:18:15.043Z,14.5
2016-08-15T01:18:25.042Z,14.6
2016-08-15T01:18:35.044Z,14.6
2016-08-15T01:18:45.045Z,14.5
2016-08-15T01:18:55.043Z,14.6
2016-08-15T01:19:05.044Z,14.5
2016-08-15T01:19:15.045Z,14.6
2016-08-15T01:19:25.044Z,14.5
2016-08-15T01:19:35.045Z,14.5
2016-08-15T01:19:45.044Z,14.5
2016-08-15T01:19:55.044Z,14.5
2016-08-15T01:20:05.045Z,14.5
2016-08-15T01:20:15.044Z,14.5
2016-08-15T01:20:25.046Z,14.4
2016-08-15T01:20:35.044Z,14.5
2016-08-15T01:20:45.046Z,14.5
2016-08-15T01:20:55.048Z,14.5
2016-08-15T01:21:05.046Z,14.4
2016-08-15T01:21:15.045Z,14.6
2016-08-15T01:21:25.047Z,14.5
2016-08-15T01:21:35.047Z,14.5
2016-08-15T01:21:45.048Z,14.5
2016-08-15T01:21:55.047Z,14.6
2016-08-15T01:22:05.048Z,14.5
2016-08-15T01:22:15.047Z,14.5
2016-08-15T01:22:25.045Z,14.5
2016-08-15T01:22:35.048Z,14.5
2016-08-15T01:22:45.050Z,14.6
2016-08-15T01:22:55.047Z,14.5
2016-08-15T01:23:05.049Z,14.6
2016-08-15T01:23:15.050Z,14.5
2016-08-15T01:23:25.048Z,14.6
2016-08-15T01:23:35.050Z,14.6
2016-08-15T01:23:45.051Z,14.6
2016-08-15T01:23:55.047Z,14.5
2016-08-15T01:24:05.049Z,14.5
2016-08-15T01:24:15.049Z,14.6
2016-08-15T01:24:25.048Z,14.6
2016-08-15T01:24:35.050Z,14.6
2016-08-15T01:24:45.051Z,14.5
2016-08-15T01:24:55.050Z,14.5
2016-08-15T01:25:05.058Z,14.6
2016-08-15T01:25:15.050Z,14.6
2016-08-15T01:25:25.053Z,14.6
2016-08-15T01:25:35.051Z,14.5
2016-08-15T01:25:45.050Z,14.6
2016-08-15T01:25:55.051Z,14.5
2016-08-15T01:26:05.051Z,14.6
2016-08-15T01:26:15.052Z,14.5
2016-08-15T01:26:25.054Z,14.6
2016-08-15T01:26:35.053Z,14.5
2016-08-15T01:26:45.054Z,14.5
2016-08-15T01:26:55.053Z,14.5
2016-08-15T01:27:05.054Z,14.6
2016-08-15T01:27:15.054Z,14.6
2016-08-15T01:27:25.053Z,14.6
2016-08-15T01:27:35.054Z,14.6
2016-08-15T01:27:45.054Z,14.6
2016-08-15T01:27:55.054Z,14.7
2016-08-15T01:28:05.056Z,14.5
2016-08-15T01:28:15.054Z,14.6
2016-08-15T01:28:25.057Z,14.5
2016-08-15T01:28:35.059Z,14.6
2016-08-15T01:28:45.057Z,14.6
2016-08-15T01:28:55.055Z,14.7
2016-08-15T01:29:05.055Z,14.7
2016-08-15T01:29:15.057Z,14.6
2016-08-15T01:29:25.056Z,14.6
2016-08-15T01:29:35.056Z,14.7
2016-08-15T01:29:45.057Z,14.6
2016-08-15T01:29:55.058Z,14.6
2016-08-15T01:30:05.057Z,14.6
2016-08-15T01:30:15.057Z,14.6
2016-08-15T01:30:25.057Z,14.5
2016-08-15T01:30:35.058Z,14.5
2016-08-15T01:30:45.058Z,14.6
2016-08-15T01:30:55.058Z,14.6
2016-08-15T01:31:05.059Z,14.6
2016-08-15T01:31:15.062Z,14.6
2016-08-15T01:31:25.058Z,14.7
2016-08-15T01:31:35.060Z,14.6
2016-08-15T01:31:45.060Z,14.6
2016-08-15T01:31:55.061Z,14.7
2016-08-15T01:32:05.060Z,14.5
2016-08-15T01:32:15.060Z,14.5
2016-08-15T01:32:25.061Z,14.6
2016-08-15T01:32:35.060Z,14.5
2016-08-15T01:32:45.060Z,14.6
2016-08-15T01:32:55.063Z,14.5
2016-08-15T01:33:05.060Z,14.5
2016-08-15T01:33:15.060Z,14.6
2016-08-15T01:33:25.063Z,14.6
2016-08-15T01:33:35.063Z,14.6
2016-08-15T01:33:45.065Z,14.5
2016-08-15T01:33:55.065Z,14.5
2016-08-15T01:34:05.064Z,14.6
2016-08-15T01:34:15.063Z,14.6
2016-08-15T01:34:25.063Z,14.7
2016-08-15T01:34:35.064Z,14.6
2016-08-15T01:34:45.063Z,14.6
2016-08-15T01:34:55.064Z,14.6
2016-08-15T01:35:05.066Z,14.5
2016-08-15T01:35:15.066Z,14.5
2016-08-15T01:35:25.064Z,14.5
2016-08-15T01:35:35.064Z,14.5
2016-08-15T01:35:45.064Z,14.6
2016-08-15T01:35:55.065Z,14.6
2016-08-15T01:36:05.066Z,14.7
2016-08-15T01:36:15.068Z,14.5
2016-08-15T01:36:25.068Z,14.6
2016-08-15T01:36:35.069Z,14.6
2016-08-15T01:36:45.072Z,14.5
2016-08-15T01:36:55.073Z,14.6
2016-08-15T01:37:05.083Z,14.6
2016-08-15T01:37:15.069Z,14.7
2016-08-15T01:37:25.070Z,14.7
2016-08-15T01:37:35.068Z,14.5
2016-08-15T01:37:45.069Z,14.7
2016-08-15T01:37:55.069Z,14.7
2016-08-15T01:38:05.070Z,14.7
2016-08-15T01:38:15.071Z,14.7
2016-08-15T01:38:25.070Z,14.6
2016-08-15T01:38:35.069Z,14.6
2016-08-15T01:38:45.070Z,14.6
2016-08-15T01:38:55.070Z,14.6
2016-08-15T01:39:05.070Z,14.5
2016-08-15T01:39:15.072Z,14.5
2016-08-15T01:39:25.073Z,14.5
2016-08-15T01:39:35.073Z,14.6
2016-08-15T01:39:45.070Z,14.6
2016-08-15T01:39:55.073Z,14.6
2016-08-15T01:40:05.072Z,14.5
2016-08-15T01:40:15.074Z,14.6
2016-08-15T01:40:25.073Z,14.7
2016-08-15T01:40:35.073Z,14.7
2016-08-15T01:40:45.075Z,14.6
2016-08-15T01:40:55.076Z,14.6
2016-08-15T01:41:05.073Z,14.5
2016-08-15T01:41:15.076Z,14.5
2016-08-15T01:41:25.076Z,14.5
2016-08-15T01:41:35.073Z,14.6
2016-08-15T01:41:45.081Z,14.6
2016-08-15T01:41:55.076Z,14.6
2016-08-15T01:42:05.075Z,14.6
2016-08-15T01:42:15.075Z,14.6
2016-08-15T01:42:25.075Z,14.6
2016-08-15T01:42:35.075Z,14.6
2016-08-15T01:42:45.077Z,14.6
2016-08-15T01:42:55.084Z,14.5
2016-08-15T01:43:05.082Z,14.5
2016-08-15T01:43:15.077Z,14.5
2016-08-15T01:43:25.079Z,14.6
2016-08-15T01:43:35.077Z,14.5
2016-08-15T01:43:45.076Z,14.6
2016-08-15T01:43:55.079Z,14.5
2016-08-15T01:44:05.079Z,14.6
2016-08-15T01:44:15.077Z,14.7
2016-08-15T01:44:25.079Z,14.6
2016-08-15T01:44:35.079Z,14.7
2016-08-15T01:44:45.080Z,14.7
2016-08-15T01:44:55.083Z,14.7
2016-08-15T01:45:05.080Z,14.6
2016-08-15T01:45:15.080Z,14.6
2016-08-15T01:45:25.085Z,14.6
2016-08-15T01:45:35.080Z,14.6
2016-08-15T01:45:45.082Z,14.6
2016-08-15T01:45:55.082Z,14.6
2016-08-15T01:46:05.080Z,14.5
2016-08-15T01:46:15.083Z,14.5
2016-08-15T01:46:25.081Z,14.5
2016-08-15T01:46:35.083Z,14.6
2016-08-15T01:46:45.083Z,14.6
2016-08-15T01:46:55.083Z,14.5
2016-08-15T01:47:05.084Z,14.5
2016-08-15T01:47:15.088Z,14.6
2016-08-15T01:47:25.083Z,14.6
2016-08-15T01:47:35.083Z,14.6
2016-08-15T01:47:45.083Z,14.5
2016-08-15T01:47:55.086Z,14.5
2016-08-15T01:48:05.086Z,14.6
2016-08-15T01:48:15.082Z,14.6
2016-08-15T01:48:25.086Z,14.5
2016-08-15T01:48:35.085Z,14.5
2016-08-15T01:48:45.083Z,14.5
2016-08-15T01:48:55.087Z,14.6
2016-08-15T01:49:05.085Z,14.7
2016-08-15T01:49:15.085Z,14.7
2016-08-15T01:49:25.091Z,14.6
2016-08-15T01:49:35.087Z,14.7
2016-08-15T01:49:45.085Z,14.6
2016-08-15T01:49:55.091Z,14.7
2016-08-15T01:50:05.088Z,14.6
2016-08-15T01:50:15.088Z,14.7
2016-08-15T01:50:25.089Z,14.7
2016-08-15T01:50:35.091Z,14.7
2016-08-15T01:50:45.089Z,14.7
2016-08-15T01:50:55.088Z,14.7
2016-08-15T01:51:05.093Z,14.7
2016-08-15T01:51:15.088Z,14.6
2016-08-15T01:51:25.089Z,14.7
2016-08-15T01:51:35.089Z,14.6
2016-08-15T01:51:45.090Z,14.6
2016-08-15T01:51:55.092Z,14.7
2016-08-15T01:52:05.091Z,14.7
2016-08-15T01:52:15.092Z,14.6
2016-08-15T01:52:25.090Z,14.8
2016-08-15T01:52:35.091Z,14.7
2016-08-15T01:52:45.091Z,14.7
2016-08-15T01:52:55.094Z,14.7
2016-08-15T01:53:05.092Z,14.8
2016-08-15T01:53:15.092Z,14.8
2016-08-15T01:53:25.093Z,14.7
2016-08-15T01:53:35.094Z,14.6
2016-08-15T01:53:45.104Z,14.7
2016-08-15T01:53:55.095Z,14.7
2016-08-15T01:54:05.096Z,14.7
2016-08-15T01:54:15.096Z,14.6
2016-08-15T01:54:25.095Z,14.7
2016-08-15T01:54:35.095Z,14.8
2016-08-15T01:54:45.095Z,14.7
2016-08-15T01:54:55.100Z,14.7
2016-08-15T01:55:05.097Z,14.6
2016-08-15T01:55:15.096Z,14.7
2016-08-15T01:55:25.103Z,14.7
2016-08-15T01:55:35.095Z,14.7
2016-08-15T01:55:45.097Z,14.7
2016-08-15T01:55:55.095Z,14.7
2016-08-15T01:56:05.098Z,14.7
2016-08-15T01:56:15.095Z,14.6
2016-08-15T01:56:25.098Z,14.7
2016-08-15T01:56:35.096Z,14.7
2016-08-15T01:56:45.099Z,14.5
2016-08-15T01:56:55.099Z,14.6
2016-08-15T01:57:05.099Z,14.6
2016-08-15T01:57:15.098Z,14.7
2016-08-15T01:57:25.098Z,14.5
2016-08-15T01:57:35.099Z,14.6
2016-08-15T01:57:45.100Z,14.6
2016-08-15T01:57:55.099Z,14.5
2016-08-15T01:58:05.099Z,14.5
2016-08-15T01:58:15.100Z,14.5
2016-08-15T01:58:25.099Z,14.6
2016-08-15T01:58:35.101Z,14.6
2016-08-15T01:58:45.102Z,14.7
2016-08-15T01:58:55.101Z,14.6
2016-08-15T01:59:05.101Z,14.7
2016-08-15T01:59:15.101Z,14.6
2016-08-15T01:59:25.101Z,14.6
2016-08-15T01:59:35.102Z,14.7
2016-08-15T01:59:45.104Z,14.7
2016-08-15T01:59:55.103Z,14.7
2016-08-15T02:00:05.108Z,14.6
2016-08-15T02:00:15.102Z,14.5
2016-08-15T02:00:25.105Z,14.7
2016-08-15T02:00:35.103Z,14.7
2016-08-15T02:00:45.106Z,14.6
2016-08-15T02:00:55.104Z,14.6
2016-08-15T02:01:05.105Z,14.7
2016-08-15T02:01:15.106Z,14.7
2016-08-15T02:01:25.106Z,14.6
2016-08-15T02:01:35.105Z,14.7
2016-08-15T02:01:45.106Z,14.7
2016-08-15T02:01:55.109Z,14.7
2016-08-15T02:02:05.105Z,14.7
2016-08-15T02:02:15.106Z,14.7
2016-08-15T02:02:25.106Z,14.6
2016-08-15T02:02:35.107Z,14.6
2016-08-15T02:02:45.107Z,14.8
2016-08-15T02:02:55.107Z,14.7
2016-08-15T02:03:05.107Z,14.8
2016-08-15T02:03:15.108Z,14.8
2016-08-15T02:03:25.108Z,14.8
2016-08-15T02:03:35.108Z,14.7
2016-08-15T02:03:45.110Z,14.8
2016-08-15T02:03:55.109Z,14.7
2016-08-15T02:04:05.109Z,14.8
2016-08-15T02:04:15.109Z,14.9
2016-08-15T02:04:25.111Z,14.8
2016-08-15T02:04:35.112Z,14.7
2016-08-15T02:04:45.110Z,14.7
2016-08-15T02:04:55.111Z,14.8
2016-08-15T02:05:05.110Z,14.7
2016-08-15T02:05:15.112Z,14.8
2016-08-15T02:05:25.113Z,14.7
2016-08-15T02:05:35.111Z,14.7
2016-08-15T02:05:45.111Z,14.8
2016-08-15T02:05:55.112Z,14.7
2016-08-15T02:06:05.116Z,14.8
2016-08-15T02:06:15.116Z,14.6
2016-08-15T02:06:25.111Z,14.7
2016-08-15T02:06:35.116Z,14.7
2016-08-15T02:06:45.115Z,14.6
2016-08-15T02:06:55.114Z,14.6
2016-08-15T02:07:05.117Z,14.7
2016-08-15T02:07:15.115Z,14.6
2016-08-15T02:07:25.114Z,14.6
2016-08-15T02:07:35.116Z,14.6
2016-08-15T02:07:45.114Z,14.7
2016-08-15T02:07:55.114Z,14.7
2016-08-15T02:08:05.117Z,14.6
2016-08-15T02:08:15.122Z,14.6
2016-08-15T02:08:25.115Z,14.6
2016-08-15T02:08:35.116Z,14.6
2016-08-15T02:08:45.117Z,14.5
2016-08-15T02:08:55.116Z,14.6
2016-08-15T02:09:05.117Z,14.5
2016-08-15T02:09:15.119Z,14.6
2016-08-15T02:09:25.118Z,14.5
2016-08-15T02:09:35.117Z,14.6
2016-08-15T02:09:45.118Z,14.6
2016-08-15T02:09:55.122Z,14.6
2016-08-15T02:10:05.119Z,14.5
2016-08-15T02:10:15.117Z,14.6
2016-08-15T02:10:25.119Z,14.6
2016-08-15T02:10:35.121Z,14.5
2016-08-15T02:10:45.122Z,14.6
2016-08-15T02:10:55.121Z,14.6
2016-08-15T02:11:05.126Z,14.5
2016-08-15T02:11:15.121Z,14.6
2016-08-15T02:11:25.119Z,14.6
2016-08-15T02:11:35.121Z,14.6
2016-08-15T02:11:45.121Z,14.6
2016-08-15T02:11:55.122Z,14.6
2016-08-15T02:12:05.122Z,14.6
2016-08-15T02:12:15.122Z,14.6
2016-08-15T02:12:25.124Z,14.6
2016-08-15T02:12:35.124Z,14.6
2016-08-15T02:12:45.122Z,14.5
2016-08-15T02:12:55.127Z,14.6
2016-08-15T02:13:05.125Z,14.6
2016-08-15T02:13:15.124Z,14.6
2016-08-15T02:13:25.124Z,14.7
2016-08-15T02:13:35.122Z,14.6
2016-08-15T02:13:45.125Z,14.7
2016-08-15T02:13:55.125Z,14.7
2016-08-15T02:14:05.126Z,14.5
2016-08-15T02:14:15.128Z,14.6
2016-08-15T02:14:25.125Z,14.6
2016-08-15T02:14:35.125Z,14.5